createdAt,value
2018-06-11T00:02:27.654Z,17.86
2018-06-11T00:04:58.864Z,17.87
2018-06-11T00:07:30.140Z,17.79
2018-06-11T00:10:01.879Z,17.74
2018-06-11T00:12:33.466Z,17.78
2018-06-11T00:15:04.877Z,17.73
2018-06-11T00:17:36.447Z,17.65
2018-06-11T00:20:07.441Z,17.53
2018-06-11T00:22:39.352Z,17.40
2018-06-11T00:25:10.582Z,17.33
2018-06-11T00:27:41.721Z,17.26
2018-06-11T00:30:12.795Z,17.25
2018-06-11T00:32:43.957Z,17.28
2018-06-11T00:35:15.023Z,17.30
2018-06-11T00:37:45.978Z,17.28
2018-06-11T00:40:17.266Z,17.27
2018-06-11T00:42:48.240Z,17.26
2018-06-11T00:45:19.092Z,17.25
2018-06-11T00:47:50.198Z,17.22
2018-06-11T00:50:21.165Z,17.19
2018-06-11T00:52:51.571Z,17.16
2018-06-11T00:55:22.884Z,17.12
2018-06-11T00:57:53.776Z,17.10
2018-06-11T01:00:25.095Z,17.11
2018-06-11T01:02:56.157Z,17.08
2018-06-11T01:05:27.418Z,17.09
2018-06-11T01:07:59.062Z,17.07
2018-06-11T01:10:30.053Z,17.02
2018-06-11T01:13:02.122Z,17.01
2018-06-11T01:15:32.557Z,16.99
2018-06-11T01:18:03.765Z,16.95
2018-06-11T01:20:34.760Z,16.88
2018-06-11T01:23:06.277Z,16.84
2018-06-11T01:25:37.290Z,16.79
2018-06-11T01:28:08.218Z,16.77
2018-06-11T01:30:39.309Z,16.76
2018-06-11T01:33:10.278Z,16.76
2018-06-11T01:35:42.445Z,16.73
2018-06-11T01:38:13.283Z,16.72
2018-06-11T01:40:44.456Z,16.72
2018-06-11T01:43:15.604Z,16.70
2018-06-11T01:45:46.559Z,16.67
2018-06-11T01:48:17.508Z,16.65
2018-06-11T01:50:48.744Z,16.64
2018-06-11T01:53:19.987Z,16.61
2018-06-11T01:55:51.395Z,16.57
2018-06-11T01:58:23.708Z,16.56
2018-06-11T02:00:54.993Z,16.51
2018-06-11T02:03:27.098Z,16.47
2018-06-11T02:05:58.379Z,16.45
2018-06-11T02:08:29.408Z,16.43
2018-06-11T02:11:01.301Z,16.44
2018-06-11T02:13:32.491Z,16.44
2018-06-11T02:16:03.401Z,16.37
2018-06-11T02:18:34.499Z,16.31
2018-06-11T02:21:05.551Z,16.30
2018-06-11T02:23:36.586Z,16.27
2018-06-11T02:26:07.562Z,16.25
2018-06-11T02:28:38.676Z,16.20
2018-06-11T02:31:10.050Z,16.16
2018-06-11T02:33:41.240Z,16.12
2018-06-11T02:36:12.495Z,16.07
2018-06-11T02:38:43.524Z,16.01
2018-06-11T02:41:14.614Z,16.00
2018-06-11T02:43:46.929Z,15.99
2018-06-11T02:46:18.251Z,15.97
2018-06-11T02:48:50.268Z,15.93
2018-06-11T02:51:21.580Z,15.92
2018-06-11T02:53:52.949Z,15.91
2018-06-11T02:56:25.067Z,15.91
2018-06-11T02:58:56.249Z,15.89
2018-06-11T03:01:27.658Z,15.87
2018-06-11T03:03:58.902Z,15.87
2018-06-11T03:06:30.053Z,15.82
2018-06-11T03:09:00.978Z,15.77
2018-06-11T03:11:34.500Z,15.73
2018-06-11T03:14:05.821Z,15.73
2018-06-11T03:16:37.019Z,15.73
2018-06-11T03:19:08.219Z,15.69
2018-06-11T03:21:39.295Z,15.60
2018-06-11T03:24:09.680Z,15.55
2018-06-11T03:26:40.996Z,15.53
2018-06-11T03:29:11.996Z,15.48
2018-06-11T03:31:42.910Z,15.45
2018-06-11T03:34:14.799Z,15.47
2018-06-11T03:36:45.247Z,15.46
2018-06-11T03:39:16.325Z,15.46
2018-06-11T03:41:47.541Z,15.44
2018-06-11T03:44:18.575Z,15.42
2018-06-11T03:46:49.558Z,15.45
2018-06-11T03:49:21.557Z,15.46
2018-06-11T03:51:52.364Z,15.47
2018-06-11T03:54:23.307Z,15.48
2018-06-11T03:56:54.587Z,15.51
2018-06-11T03:59:26.971Z,15.56
2018-06-11T04:01:58.007Z,15.61
2018-06-11T04:04:28.993Z,15.67
2018-06-11T04:07:00.079Z,15.73
2018-06-11T04:09:31.171Z,15.75
2018-06-11T04:12:02.381Z,15.82
2018-06-11T04:14:33.392Z,15.86
2018-06-11T04:17:05.125Z,15.89
2018-06-11T04:19:36.182Z,15.92
2018-06-11T04:22:07.474Z,15.91
2018-06-11T04:24:38.487Z,15.86
2018-06-11T04:27:09.548Z,15.80
2018-06-11T04:29:41.007Z,15.84
2018-06-11T04:32:11.596Z,15.86
2018-06-11T04:34:43.867Z,15.96
2018-06-11T04:37:14.708Z,16.02
2018-06-11T04:39:45.846Z,16.05
2018-06-11T04:42:18.104Z,16.10
2018-06-11T04:44:49.193Z,16.23
2018-06-11T04:47:19.565Z,16.34
2018-06-11T04:49:50.821Z,16.39
2018-06-11T04:52:21.312Z,16.35
2018-06-11T04:54:52.468Z,16.42
2018-06-11T04:57:23.811Z,16.42
2018-06-11T04:59:54.793Z,16.55
2018-06-11T05:02:25.944Z,16.75
2018-06-11T05:04:56.907Z,16.84
2018-06-11T05:07:28.063Z,17.01
2018-06-11T05:09:59.027Z,17.14
2018-06-11T05:12:29.990Z,17.23
2018-06-11T05:15:00.973Z,17.34
2018-06-11T05:17:33.493Z,17.51
2018-06-11T05:20:04.643Z,17.70
2018-06-11T05:22:35.506Z,17.92
2018-06-11T05:25:06.702Z,18.11
2018-06-11T05:27:37.587Z,18.34
2018-06-11T05:30:08.829Z,18.49
2018-06-11T05:32:40.841Z,18.66
2018-06-11T05:35:12.738Z,18.70
2018-06-11T05:37:43.874Z,18.83
2018-06-11T05:40:14.936Z,19.07
2018-06-11T05:42:46.152Z,19.17
2018-06-11T05:45:16.636Z,19.33
2018-06-11T05:47:48.303Z,19.52
2018-06-11T05:50:19.570Z,19.62
2018-06-11T05:52:50.934Z,19.52
2018-06-11T05:55:22.663Z,19.72
2018-06-11T05:57:56.278Z,19.85
2018-06-11T06:00:27.851Z,20.02
2018-06-11T06:02:59.948Z,20.20
2018-06-11T06:05:32.606Z,20.37
2018-06-11T06:08:04.400Z,20.62
2018-06-11T06:10:35.498Z,20.76
2018-06-11T06:13:06.674Z,20.98
2018-06-11T06:15:39.593Z,21.16
2018-06-11T06:18:10.730Z,21.47
2018-06-11T06:20:42.173Z,22.18
2018-06-11T06:23:13.731Z,23.08
2018-06-11T06:25:45.731Z,23.67
2018-06-11T06:28:17.015Z,24.14
2018-06-11T06:30:49.245Z,24.59
2018-06-11T06:33:20.526Z,25.16
2018-06-11T06:35:52.200Z,25.61
2018-06-11T06:38:23.650Z,26.00
2018-06-11T06:40:54.841Z,26.19
2018-06-11T06:43:26.252Z,26.54
2018-06-11T06:45:58.742Z,26.96
2018-06-11T06:48:30.062Z,27.12
2018-06-11T06:51:01.664Z,27.32
2018-06-11T06:53:32.564Z,27.52
2018-06-11T06:56:03.798Z,27.55
2018-06-11T06:58:37.123Z,27.48
2018-06-11T07:01:08.348Z,27.81
2018-06-11T07:03:39.593Z,27.64
2018-06-11T07:06:12.262Z,28.00
2018-06-11T07:08:43.856Z,28.19
2018-06-11T07:11:16.128Z,28.31
2018-06-11T07:13:48.085Z,28.57
2018-06-11T07:16:20.314Z,28.91
2018-06-11T07:18:51.821Z,29.29
2018-06-11T07:21:23.209Z,29.70
2018-06-11T07:23:54.589Z,30.10
2018-06-11T07:26:26.550Z,30.50
2018-06-11T07:28:58.489Z,30.27
2018-06-11T07:31:30.040Z,30.37
2018-06-11T07:34:01.423Z,30.42
2018-06-11T07:36:33.201Z,30.77
2018-06-11T07:39:07.437Z,30.83
2018-06-11T07:41:39.515Z,31.13
2018-06-11T07:44:11.589Z,31.52
2018-06-11T07:46:42.936Z,31.84
2018-06-11T07:49:15.703Z,32.25
2018-06-11T07:51:47.747Z,32.58
2018-06-11T07:54:18.209Z,32.38
2018-06-11T07:56:50.279Z,32.18
2018-06-11T07:59:22.754Z,32.47
2018-06-11T08:01:54.292Z,33.08
2018-06-11T08:04:25.816Z,32.99
2018-06-11T08:06:57.939Z,33.04
2018-06-11T08:09:29.382Z,32.84
2018-06-11T08:12:09.613Z,32.90
2018-06-11T08:14:41.366Z,32.97
2018-06-11T08:17:13.297Z,32.97
2018-06-11T08:19:45.096Z,33.09
2018-06-11T08:22:16.596Z,33.41
2018-06-11T08:24:47.891Z,34.20
2018-06-11T08:27:20.406Z,33.91
2018-06-11T08:29:51.819Z,34.43
2018-06-11T08:32:23.478Z,34.27
2018-06-11T08:34:54.694Z,32.83
2018-06-11T08:37:26.580Z,33.13
2018-06-11T08:39:57.835Z,32.87
2018-06-11T08:42:29.241Z,33.45
2018-06-11T08:45:01.345Z,33.94
2018-06-11T08:47:32.340Z,34.32
2018-06-11T08:50:03.639Z,33.60
2018-06-11T08:52:34.936Z,34.12
2018-06-11T08:55:06.253Z,34.52
2018-06-11T08:57:37.685Z,35.08
2018-06-11T09:00:09.940Z,35.80
2018-06-11T09:02:41.999Z,35.86
2018-06-11T09:05:13.279Z,35.89
2018-06-11T09:07:45.239Z,36.14
2018-06-11T09:10:17.563Z,36.61
2018-06-11T09:12:48.867Z,37.44
2018-06-11T09:15:21.844Z,37.56
2018-06-11T09:17:53.064Z,36.61
2018-06-11T09:20:24.171Z,35.44
2018-06-11T09:22:55.334Z,36.44
2018-06-11T09:25:26.642Z,37.23
2018-06-11T09:27:58.813Z,34.98
2018-06-11T09:30:30.892Z,35.18
2018-06-11T09:33:01.968Z,34.47
2018-06-11T09:35:33.165Z,33.75
2018-06-11T09:38:05.126Z,34.34
2018-06-11T09:40:36.402Z,35.79
2018-06-11T09:43:08.088Z,36.62
2018-06-11T09:45:40.250Z,37.28
2018-06-11T09:48:11.826Z,37.83
2018-06-11T09:50:43.135Z,37.29
2018-06-11T09:53:14.514Z,35.29
2018-06-11T09:55:45.893Z,35.35
2018-06-11T09:58:17.544Z,35.65
2018-06-11T10:00:49.841Z,34.42
2018-06-11T10:03:21.579Z,35.62
2018-06-11T10:05:53.707Z,34.11
2018-06-11T10:22:49.751Z,36.29
2018-06-11T10:25:22.421Z,37.05
2018-06-11T10:27:54.470Z,36.77
2018-06-11T10:30:27.491Z,35.30
2018-06-11T10:32:58.841Z,34.90
2018-06-11T10:35:30.033Z,33.79
2018-06-11T10:38:01.182Z,35.52
2018-06-11T10:40:32.791Z,36.38
2018-06-11T10:43:04.184Z,36.99
2018-06-11T10:45:35.192Z,36.87
2018-06-11T10:48:06.784Z,37.18
2018-06-11T10:50:38.819Z,37.29
2018-06-11T10:53:10.601Z,37.42
2018-06-11T10:55:41.919Z,37.34
2018-06-11T10:58:13.417Z,37.43
2018-06-11T11:00:44.851Z,37.86
2018-06-11T11:03:16.699Z,38.05
2018-06-11T11:05:48.630Z,37.87
2018-06-11T11:08:20.953Z,37.63
2018-06-11T11:10:52.207Z,37.86
2018-06-11T11:13:23.649Z,35.61
2018-06-11T11:15:55.058Z,34.90
2018-06-11T11:18:26.563Z,34.90
2018-06-11T11:20:58.059Z,35.68
2018-06-11T11:23:29.461Z,33.97
2018-06-11T11:26:01.574Z,34.38
2018-06-11T11:28:32.468Z,34.68
2018-06-11T11:31:03.149Z,36.28
2018-06-11T11:33:34.270Z,35.62
2018-06-11T11:36:05.905Z,36.50
2018-06-11T11:38:38.833Z,35.02
2018-06-11T11:41:10.645Z,35.02
2018-06-11T11:43:43.044Z,35.04
2018-06-11T11:46:14.250Z,35.19
2018-06-11T11:48:45.682Z,35.33
2018-06-11T11:51:16.799Z,34.96
2018-06-11T11:53:48.254Z,35.90
2018-06-11T11:56:21.197Z,36.08
2018-06-11T11:58:53.227Z,36.60
2018-06-11T12:01:24.980Z,36.85
2018-06-11T12:03:56.297Z,34.67
2018-06-11T12:06:28.438Z,35.17
2018-06-11T12:08:59.692Z,36.26
2018-06-11T12:11:30.914Z,36.51
2018-06-11T12:14:02.960Z,34.91
2018-06-11T12:16:36.116Z,32.64
2018-06-11T12:19:07.386Z,33.53
2018-06-11T12:21:38.791Z,34.66
2018-06-11T12:24:10.650Z,35.24
2018-06-11T12:26:42.384Z,36.02
2018-06-11T12:29:13.568Z,36.04
2018-06-11T12:31:45.328Z,36.44
2018-06-11T12:34:17.472Z,35.68
2018-06-11T12:36:48.761Z,35.30
2018-06-11T12:39:20.967Z,36.22
2018-06-11T12:41:52.314Z,36.86
2018-06-11T12:44:24.375Z,37.20
2018-06-11T12:46:55.269Z,37.48
2018-06-11T12:49:26.041Z,36.41
2018-06-11T12:51:57.519Z,37.19
2018-06-11T12:54:29.083Z,35.53
2018-06-11T12:57:00.205Z,35.80
2018-06-11T12:59:31.818Z,35.56
2018-06-11T13:02:04.051Z,34.96
2018-06-11T13:04:35.568Z,33.71
2018-06-11T13:07:07.248Z,34.33
2018-06-11T13:09:39.568Z,35.70
2018-06-11T13:12:10.836Z,35.26
2018-06-11T13:14:42.085Z,33.91
2018-06-11T13:17:13.244Z,34.57
2018-06-11T13:19:44.548Z,35.85
2018-06-11T13:22:16.324Z,36.57
2018-06-11T13:24:47.908Z,34.68
2018-06-11T13:27:19.818Z,34.59
2018-06-11T13:29:51.088Z,33.58
2018-06-11T13:32:22.390Z,34.99
2018-06-11T13:34:54.465Z,35.24
2018-06-11T13:37:26.062Z,35.75
2018-06-11T13:39:57.920Z,36.37
2018-06-11T13:42:30.040Z,36.18
2018-06-11T13:45:01.706Z,35.20
2018-06-11T13:47:32.666Z,35.25
2018-06-11T13:50:04.061Z,33.89
2018-06-11T13:52:36.483Z,34.58
2018-06-11T13:55:08.373Z,35.40
2018-06-11T13:57:39.572Z,35.58
2018-06-11T14:00:11.817Z,33.10
2018-06-11T14:02:43.249Z,33.91
2018-06-11T14:05:19.910Z,33.78
2018-06-11T14:07:52.224Z,34.61
2018-06-11T14:10:23.253Z,33.97
2018-06-11T14:12:56.369Z,33.77
2018-06-11T14:15:28.151Z,33.19
2018-06-11T14:18:00.140Z,33.83
2018-06-11T14:20:31.257Z,34.03
2018-06-11T14:23:02.733Z,34.18
2018-06-11T14:25:34.649Z,33.19
2018-06-11T14:28:06.087Z,31.85
2018-06-11T14:30:39.122Z,31.64
2018-06-11T14:33:11.369Z,32.34
2018-06-11T14:35:42.983Z,32.14
2018-06-11T14:38:14.511Z,32.86
2018-06-11T14:40:45.615Z,33.28
2018-06-11T14:43:17.167Z,33.05
2018-06-11T14:45:48.893Z,33.10
2018-06-11T14:48:20.344Z,33.54
2018-06-11T14:50:51.647Z,32.38
2018-06-11T14:53:23.538Z,32.52
2018-06-11T14:55:54.877Z,32.43
2018-06-11T14:58:26.275Z,32.51
2018-06-11T15:00:58.848Z,31.46
2018-06-11T15:03:29.983Z,31.08
2018-06-11T15:06:01.318Z,31.34
2018-06-11T15:08:32.639Z,31.15
2018-06-11T15:11:04.050Z,31.37
2018-06-11T15:13:35.511Z,31.52
2018-06-11T15:16:08.461Z,31.29
2018-06-11T15:18:39.574Z,30.99
2018-06-11T15:21:11.037Z,30.96
2018-06-11T15:23:43.647Z,31.42
2018-06-11T15:26:15.988Z,31.77
2018-06-11T15:28:48.207Z,31.23
2018-06-11T15:31:19.870Z,30.81
2018-06-11T15:33:52.517Z,31.23
2018-06-11T15:36:24.049Z,30.97
2018-06-11T15:38:56.728Z,31.36
2018-06-11T15:41:28.206Z,31.46
2018-06-11T15:44:00.269Z,31.14
2018-06-11T15:46:31.653Z,31.25
2018-06-11T15:49:02.981Z,31.48
2018-06-11T15:51:34.718Z,30.86
2018-06-11T15:54:07.081Z,31.04
2018-06-11T15:56:38.487Z,31.45
2018-06-11T15:59:11.295Z,30.66
2018-06-11T16:01:42.659Z,31.11
2018-06-11T16:04:14.057Z,31.22
2018-06-11T16:06:44.595Z,31.59
2018-06-11T16:09:15.026Z,31.50
2018-06-11T16:11:47.463Z,31.11
2018-06-11T16:14:18.617Z,31.03
2018-06-11T16:16:49.833Z,31.33
2018-06-11T16:19:21.105Z,31.15
2018-06-11T16:21:52.999Z,31.28
2018-06-11T16:24:24.481Z,31.10
2018-06-11T16:26:55.969Z,30.71
2018-06-11T16:29:27.562Z,30.84
2018-06-11T16:31:59.005Z,30.76
2018-06-11T16:34:30.857Z,30.71
2018-06-11T16:37:03.771Z,30.67
2018-06-11T16:39:35.868Z,30.51
2018-06-11T16:42:07.366Z,30.49
2018-06-11T16:44:39.354Z,30.68
2018-06-11T16:47:11.773Z,30.59
2018-06-11T16:49:43.533Z,30.76
2018-06-11T16:52:16.556Z,30.77
2018-06-11T16:54:48.730Z,30.28
2018-06-11T16:57:20.814Z,30.32
2018-06-11T16:59:52.117Z,30.12
2018-06-11T17:02:24.612Z,30.17
2018-06-11T17:04:56.156Z,30.15
2018-06-11T17:07:27.534Z,30.15
2018-06-11T17:09:59.965Z,29.88
2018-06-11T17:12:32.134Z,29.88
2018-06-11T17:15:03.723Z,29.97
2018-06-11T17:17:35.586Z,30.09
2018-06-11T17:20:07.562Z,29.96
2018-06-11T17:22:40.965Z,29.91
2018-06-11T17:25:13.542Z,29.81
2018-06-11T17:27:45.803Z,29.63
2018-06-11T17:30:18.522Z,29.49
2018-06-11T17:32:50.245Z,29.38
2018-06-11T17:35:23.589Z,29.28
2018-06-11T17:37:56.962Z,29.35
2018-06-11T17:40:28.954Z,29.11
2018-06-11T17:43:00.847Z,28.92
2018-06-11T17:45:33.259Z,28.85
2018-06-11T17:48:04.671Z,28.77
2018-06-11T17:50:36.040Z,28.80
2018-06-11T17:53:07.538Z,28.84
2018-06-11T17:55:39.011Z,28.86
2018-06-11T17:58:10.371Z,28.79
2018-06-11T18:00:41.731Z,28.65
2018-06-11T18:03:14.054Z,28.58
2018-06-11T18:05:46.484Z,28.61
2018-06-11T18:08:18.367Z,28.61
2018-06-11T18:10:50.508Z,28.51
2018-06-11T18:13:24.410Z,28.39
2018-06-11T18:15:56.700Z,28.27
2018-06-11T18:18:28.846Z,28.18
2018-06-11T18:21:02.287Z,27.96
2018-06-11T18:23:35.918Z,27.92
2018-06-11T18:26:09.312Z,27.79
2018-06-11T18:28:41.683Z,27.65
2018-06-11T18:31:14.353Z,27.54
2018-06-11T18:33:46.225Z,27.36
2018-06-11T18:36:20.297Z,27.20
2018-06-11T18:38:53.105Z,26.96
2018-06-11T18:41:26.329Z,26.70
2018-06-11T18:44:00.091Z,26.59
2018-06-11T18:46:34.072Z,26.36
2018-06-11T18:49:06.549Z,26.25
2018-06-11T18:51:41.404Z,26.26
2018-06-11T18:54:14.606Z,26.23
2018-06-11T18:56:48.144Z,26.14
2018-06-11T18:59:21.129Z,25.99
2018-06-11T19:01:53.738Z,25.89
2018-06-11T19:04:26.828Z,25.82
2018-06-11T19:06:59.633Z,25.74
2018-06-11T19:09:32.717Z,25.63
2018-06-11T19:12:05.470Z,25.43
2018-06-11T19:14:40.588Z,25.32
2018-06-11T19:17:13.231Z,25.26
2018-06-11T19:19:47.485Z,25.28
2018-06-11T19:22:20.975Z,25.18
2018-06-11T19:24:54.356Z,24.93
2018-06-11T19:27:30.713Z,24.82
2018-06-11T19:30:03.682Z,24.71
2018-06-11T19:32:36.003Z,24.65
2018-06-11T19:35:09.072Z,24.60
2018-06-11T19:37:42.437Z,24.52
2018-06-11T19:40:20.023Z,24.52
2018-06-11T19:42:53.404Z,24.49
2018-06-11T19:45:26.753Z,24.37
2018-06-11T19:48:02.096Z,24.36
2018-06-11T19:50:37.004Z,24.37
2018-06-11T19:53:09.805Z,24.42
2018-06-11T19:55:42.665Z,24.45
2018-06-11T19:58:15.624Z,24.43
2018-06-11T20:00:49.070Z,24.13
2018-06-11T20:03:23.500Z,23.89
2018-06-11T20:05:57.901Z,23.79
2018-06-11T20:08:30.968Z,23.78
2018-06-11T20:11:06.044Z,23.71
2018-06-11T20:13:40.710Z,23.69
2018-06-11T20:16:16.740Z,23.75
2018-06-11T20:18:53.576Z,23.79
2018-06-11T20:21:26.600Z,23.78
2018-06-11T20:24:00.599Z,23.74
2018-06-11T20:26:36.987Z,23.79
2018-06-11T20:29:10.159Z,23.75
2018-06-11T20:31:45.190Z,23.72
2018-06-11T20:34:17.900Z,23.67
2018-06-11T20:36:51.210Z,23.70
2018-06-11T20:39:25.464Z,23.70
2018-06-11T20:41:58.941Z,23.69
2018-06-11T20:44:32.352Z,23.70
2018-06-11T20:47:05.556Z,23.66
2018-06-11T20:49:38.580Z,23.74
2018-06-11T20:52:12.056Z,23.72
2018-06-11T20:54:44.809Z,23.68
2018-06-11T20:57:17.931Z,23.73
2018-06-11T20:59:50.000Z,23.67
2018-06-11T21:02:22.238Z,23.61
2018-06-11T21:04:55.893Z,23.48
2018-06-11T21:07:27.702Z,23.39
2018-06-11T21:10:01.272Z,23.30
2018-06-11T21:12:32.953Z,23.22
2018-06-11T21:15:04.916Z,23.09
2018-06-11T21:17:36.305Z,23.01
2018-06-11T21:20:07.786Z,22.86
2018-06-11T21:22:41.347Z,22.86
2018-06-11T21:25:13.791Z,22.84
2018-06-11T21:27:45.154Z,22.82
2018-06-11T21:30:16.313Z,22.81
2018-06-11T21:32:48.304Z,22.68
2018-06-11T21:35:19.646Z,22.61
2018-06-11T21:37:51.588Z,22.48
2018-06-11T21:40:23.470Z,22.36
2018-06-11T21:42:54.528Z,22.37
2018-06-11T21:45:26.004Z,22.42
2018-06-11T21:47:57.264Z,22.42
2018-06-11T21:50:28.243Z,22.51
2018-06-11T21:52:59.467Z,22.39
2018-06-11T21:55:31.248Z,22.41
2018-06-11T21:58:03.179Z,22.38
2018-06-11T22:00:34.877Z,22.36
2018-06-11T22:03:07.321Z,22.36
2018-06-11T22:05:39.123Z,22.43
2018-06-11T22:08:10.703Z,22.43
2018-06-11T22:10:42.311Z,22.40
2018-06-11T22:13:14.498Z,22.31
2018-06-11T22:15:45.788Z,22.30
2018-06-11T22:18:17.361Z,22.33
2018-06-11T22:20:48.929Z,22.36
2018-06-11T22:23:20.687Z,22.36
2018-06-11T22:25:52.352Z,22.32
2018-06-11T22:28:23.910Z,22.29
2018-06-11T22:30:57.325Z,22.27
2018-06-11T22:33:29.760Z,22.22
2018-06-11T22:36:01.245Z,22.28
2018-06-11T22:38:32.542Z,22.29
2018-06-11T22:41:03.763Z,22.29
2018-06-11T22:43:34.856Z,22.29
2018-06-11T22:46:06.635Z,22.24
2018-06-11T22:48:39.918Z,22.33
2018-06-11T22:51:11.256Z,22.32
2018-06-11T22:53:42.704Z,22.30
2018-06-11T22:56:14.016Z,22.28
2018-06-11T22:58:44.914Z,22.37
2018-06-11T23:01:16.184Z,22.30
2018-06-11T23:03:47.586Z,22.31
2018-06-11T23:06:18.881Z,22.24
2018-06-11T23:08:50.543Z,22.16
2018-06-11T23:11:21.428Z,22.01
2018-06-11T23:13:52.489Z,21.87
2018-06-11T23:16:24.399Z,21.66
2018-06-11T23:18:55.254Z,21.47
2018-06-11T23:21:26.541Z,21.44
2018-06-11T23:23:58.632Z,21.32
2018-06-11T23:26:30.139Z,21.31
2018-06-11T23:29:02.134Z,21.27
2018-06-11T23:31:33.517Z,21.21
2018-06-11T23:34:04.510Z,21.26
2018-06-11T23:36:35.534Z,21.20
2018-06-11T23:39:08.354Z,21.19
2018-06-11T23:41:39.427Z,21.07
2018-06-11T23:44:10.429Z,21.09
2018-06-11T23:46:41.708Z,21.05
2018-06-11T23:49:13.814Z,21.05
2018-06-11T23:51:44.672Z,21.01
2018-06-11T23:54:15.726Z,20.96
2018-06-11T23:56:46.823Z,20.96
2018-06-11T23:59:18.505Z,21.08
